Time;durP1;ratioP1;P1;durP2;ratioP2;P2;SDS_P1;SDS_P2;PMS_P1;PMS_P2;Temp;Humidity;BMP_temperature;BMP_pressure;BME280_temperature;BME280_humidity;BME280_pressure;Samples;Min_cycle;Max_cycle;Signal;HPM_P1;HPM_P2
2023/03/02 00:02:14;;;;;;;38.80;17.47;;;;;;;7.42;51.88;102658.91;5067441;28;20434;-68
2023/03/02 00:04:44;;;;;;;40.63;18.80;;;;;;;8.12;51.30;102654.09;5071075;28;20059;-68
2023/03/02 00:07:13;;;;;;;43.07;20.00;;;;;;;8.80;49.17;102642.97;5070584;28;20036;-68
2023/03/02 00:09:39;;;;;;;41.90;20.40;;;;;;;8.56;49.22;102651.91;5061362;28;20036;-68
2023/03/02 00:12:06;;;;;;;44.53;19.97;;;;;;;8.50;49.74;102656.94;5057884;28;20060;-68
2023/03/02 00:14:31;;;;;;;49.93;22.10;;;;;;;8.43;51.03;102657.56;5066986;28;20476;-68
2023/03/02 00:16:57;;;;;;;41.63;19.43;;;;;;;7.30;53.01;102654.19;5070993;28;20081;-68
2023/03/02 00:19:22;;;;;;;50.03;24.93;;;;;;;7.83;52.95;102648.91;5069297;28;20024;-69
2023/03/02 00:21:48;;;;;;;44.57;21.70;;;;;;;7.37;53.95;102650.06;5069182;28;20373;-68
2023/03/02 00:24:16;;;;;;;49.37;22.37;;;;;;;7.84;53.98;102649.78;5070835;28;20055;-68
2023/03/02 00:26:41;;;;;;;51.13;24.20;;;;;;;8.04;54.46;102640.84;5069200;28;20570;-68
2023/03/02 00:29:07;;;;;;;49.97;22.60;;;;;;;7.81;53.81;102637.56;5061075;28;20036;-68
2023/03/02 00:31:32;;;;;;;57.10;25.63;;;;;;;7.92;53.82;102636.16;5062424;28;20028;-68
2023/03/02 00:33:58;;;;;;;58.40;26.60;;;;;;;8.58;51.90;102624.13;5069210;28;20028;-68
2023/03/02 00:36:23;;;;;;;55.80;25.23;;;;;;;7.75;55.24;102634.78;5069487;28;20044;-68
2023/03/02 00:38:51;;;;;;;61.27;26.97;;;;;;;8.02;54.07;102631.22;5069935;28;20326;-68
2023/03/02 00:41:16;;;;;;;55.93;25.13;;;;;;;7.67;55.27;102634.53;5068809;28;20082;-68
2023/03/02 00:43:42;;;;;;;60.73;27.33;;;;;;;8.07;54.16;102624.44;5068717;28;20029;-68
2023/03/02 00:46:15;;;;;;;56.63;26.37;;;;;;;8.37;52.94;102623.53;5065700;28;20040;-68
2023/03/02 00:48:41;;;;;;;60.50;27.27;;;;;;;7.40;56.98;102634.53;5067905;28;20060;-69
2023/03/02 00:51:07;;;;;;;64.00;28.27;;;;;;;7.34;56.93;102629.16;5068172;28;20532;-69
2023/03/02 00:53:33;;;;;;;60.07;27.27;;;;;;;7.79;55.43;102634.03;5069043;28;20124;-68
2023/03/02 00:55:59;;;;;;;64.00;29.47;;;;;;;7.45;56.80;102622.56;5067042;28;20029;-68
2023/03/02 00:58:26;;;;;;;61.10;27.63;;;;;;;7.21;58.25;102622.66;5067985;28;20478;-68
2023/03/02 01:00:51;;;;;;;68.07;29.10;;;;;;;7.53;56.84;102631.50;5069530;28;20104;-69
2023/03/02 01:03:17;;;;;;;67.13;30.37;;;;;;;7.87;55.92;102626.44;5058834;28;20115;-68
2023/03/02 01:05:42;;;;;;;72.00;29.70;;;;;;;7.72;57.25;102627.75;5063990;28;20063;-68
2023/03/02 01:08:08;;;;;;;63.53;29.70;;;;;;;7.43;59.37;102630.34;5068903;28;20480;-68
2023/03/02 01:10:34;;;;;;;72.83;30.70;;;;;;;7.39;59.00;102633.69;5069260;28;20032;-68
2023/03/02 01:12:59;;;;;;;66.17;29.33;;;;;;;7.82;57.40;102623.72;5067831;28;20039;-68
2023/03/02 01:15:24;;;;;;;67.93;30.17;;;;;;;7.94;56.25;102618.88;5062677;28;20079;-68
2023/03/02 01:17:50;;;;;;;72.53;30.60;;;;;;;7.19;58.98;102625.22;5064164;28;20028;-68
2023/03/02 01:20:16;;;;;;;72.73;31.27;;;;;;;7.07;60.44;102625.69;5066488;28;20017;-68
2023/03/02 01:22:43;;;;;;;73.77;30.27;;;;;;;7.05;61.90;102626.50;5066988;28;20434;-68
2023/03/02 01:25:09;;;;;;;68.53;27.30;;;;;;;6.39;66.61;102627.69;5067856;28;20074;-68
2023/03/02 01:27:35;;;;;;;71.97;30.37;;;;;;;6.71;65.17;102633.16;5066191;28;20036;-68
2023/03/02 01:30:01;;;;;;;74.97;30.17;;;;;;;7.08;62.64;102631.78;5066903;28;20785;-67
2023/03/02 01:32:26;;;;;;;72.40;30.30;;;;;;;7.16;62.76;102632.03;5069904;28;20158;-68
2023/03/02 01:34:51;;;;;;;72.50;30.47;;;;;;;6.53;64.03;102628.19;5067647;28;20387;-68
2023/03/02 01:37:17;;;;;;;67.30;28.73;;;;;;;6.87;62.17;102632.84;5066434;28;20089;-68
2023/03/02 01:39:42;;;;;;;75.73;31.73;;;;;;;7.03;63.57;102634.22;5068693;28;20403;-68
2023/03/02 01:42:08;;;;;;;72.40;29.17;;;;;;;7.23;61.81;102632.28;5068884;28;20038;-68
2023/03/02 01:44:46;;;;;;;72.67;30.40;;;;;;;7.13;61.56;102630.25;5066393;28;20017;-68
2023/03/02 01:47:20;;;;;;;74.87;28.17;;;;;;;6.88;62.67;102632.00;5058290;28;20045;-68
2023/03/02 01:49:51;;;;;;;72.37;29.53;;;;;;;7.70;60.07;102624.22;5056473;28;20036;-68
2023/03/02 01:52:18;;;;;;;75.97;30.37;;;;;;;7.38;59.40;102625.81;5067561;28;20025;-68
2023/03/02 01:54:48;;;;;;;70.03;28.90;;;;;;;6.93;61.49;102620.03;5067567;28;20397;-68
2023/03/02 01:57:18;;;;;;;73.80;29.67;;;;;;;6.85;63.67;102624.09;5068325;28;20183;-68
2023/03/02 01:59:44;;;;;;;73.67;28.67;;;;;;;7.28;60.62;102622.03;5066705;28;20242;-68
2023/03/02 02:02:10;;;;;;;76.00;31.10;;;;;;;7.41;59.93;102615.50;5065959;28;20555;-68
2023/03/02 02:04:40;;;;;;;88.43;32.63;;;;;;;7.36;59.41;102612.75;5067381;28;20028;-68
2023/03/02 02:07:08;;;;;;;82.70;31.80;;;;;;;7.42;61.21;102617.28;5066349;28;20028;-68
2023/03/02 02:09:40;;;;;;;83.33;31.90;;;;;;;7.32;60.16;102615.22;5067030;28;20063;-68
2023/03/02 02:12:10;;;;;;;79.50;30.73;;;;;;;6.97;61.75;102613.22;5050136;28;20173;-69
2023/03/02 02:14:35;;;;;;;76.00;31.50;;;;;;;7.49;61.01;102608.81;5061915;28;20438;-68
2023/03/02 02:17:01;;;;;;;78.87;28.87;;;;;;;6.33;64.95;102611.88;5065606;28;20037;-68
2023/03/02 02:20:06;;;;;;;79.97;30.57;;;;;;;7.06;60.98;102615.25;5067523;28;20897;-68
2023/03/02 02:23:00;;;;;;;80.30;30.30;;;;;;;6.81;62.89;102606.63;5065955;28;20696;-68
2023/03/02 02:25:28;;;;;;;76.53;30.50;;;;;;;7.68;59.45;102598.97;5068974;28;20081;-68
2023/03/02 02:27:56;;;;;;;81.60;29.23;;;;;;;7.63;58.70;102584.09;5065695;28;20047;-69
2023/03/02 02:30:23;;;;;;;81.07;29.37;;;;;;;7.23;59.02;102590.66;5082024;28;20063;-68
2023/03/02 02:32:52;;;;;;;82.07;31.10;;;;;;;7.71;59.21;102578.25;5067102;28;20037;-68
2023/03/02 02:35:23;;;;;;;83.17;29.97;;;;;;;7.07;61.53;102578.00;5065171;28;20088;-68
2023/03/02 02:37:55;;;;;;;81.93;31.00;;;;;;;6.52;63.50;102587.44;5064799;28;20025;-68
2023/03/02 02:40:46;;;;;;;84.53;31.20;;;;;;;6.86;62.02;102586.88;5066030;28;20439;-68
2023/03/02 02:43:15;;;;;;;86.03;31.43;;;;;;;7.26;61.70;102580.34;5058046;28;20126;-68
2023/03/02 02:45:41;;;;;;;86.83;31.83;;;;;;;6.85;62.76;102582.50;5059480;28;20074;-68
2023/03/02 02:48:19;;;;;;;80.50;30.13;;;;;;;7.04;64.15;102573.59;5051098;28;20033;-68
2023/03/02 02:50:45;;;;;;;84.33;31.53;;;;;;;7.29;62.11;102583.06;5062443;28;20072;-68
2023/03/02 02:53:16;;;;;;;89.43;30.47;;;;;;;6.61;64.87;102583.44;5067263;28;20037;-68
2023/03/02 02:55:44;;;;;;;88.00;31.23;;;;;;;7.27;62.26;102587.34;5066083;28;20436;-68
2023/03/02 02:58:37;;;;;;;82.03;30.30;;;;;;;6.79;66.35;102577.09;5066302;28;20430;-68
2023/03/02 03:01:03;;;;;;;76.77;28.97;;;;;;;7.48;61.67;102575.81;5057094;28;20028;-68
2023/03/02 03:03:32;;;;;;;77.67;28.23;;;;;;;7.29;61.83;102575.28;5058637;28;20034;-69
2023/03/02 03:06:00;;;;;;;89.50;32.13;;;;;;;7.82;60.49;102566.44;5062161;28;20120;-68
2023/03/02 03:08:44;;;;;;;82.57;30.90;;;;;;;6.77;63.50;102573.56;5068036;28;20495;-68
2023/03/02 03:11:15;;;;;;;75.90;30.07;;;;;;;6.58;67.03;102570.34;5066142;28;20051;-68
2023/03/02 03:13:42;;;;;;;80.53;30.13;;;;;;;6.37;66.11;102562.69;5047264;28;20053;-68
2023/03/02 03:16:12;;;;;;;82.67;30.03;;;;;;;6.96;65.05;102572.44;5066982;28;20432;-69
2023/03/02 03:18:41;;;;;;;79.23;30.50;;;;;;;7.13;62.70;102560.88;5063102;28;20033;-68
2023/03/02 03:21:06;;;;;;;76.27;29.83;;;;;;;7.04;64.04;102565.78;5061757;28;20086;-68
2023/03/02 03:23:36;;;;;;;80.00;27.93;;;;;;;6.14;67.07;102564.50;5060745;28;20422;-68
2023/03/02 03:26:05;;;;;;;68.43;27.33;;;;;;;6.93;64.01;102575.84;5070083;28;20032;-68
2023/03/02 03:28:31;;;;;;;85.77;29.43;;;;;;;6.61;65.21;102575.66;5061180;28;20436;-68
2023/03/02 03:30:56;;;;;;;70.47;26.47;;;;;;;6.97;64.90;102567.31;5070523;28;20032;-68
2023/03/02 03:33:22;;;;;;;85.00;31.07;;;;;;;7.26;62.94;102564.75;5070555;28;20495;-68
2023/03/02 03:35:48;;;;;;;77.20;28.80;;;;;;;7.28;62.29;102563.09;5069228;28;20028;-69
2023/03/02 03:38:13;;;;;;;77.00;28.70;;;;;;;7.05;61.99;102564.09;5069983;28;20035;-68
2023/03/02 03:40:38;;;;;;;77.90;29.53;;;;;;;6.35;66.26;102563.47;5069429;28;20472;-68
2023/03/02 03:43:04;;;;;;;70.77;27.10;;;;;;;6.23;66.20;102559.59;5070012;28;20031;-68
2023/03/02 03:45:30;;;;;;;81.67;29.80;;;;;;;7.19;62.07;102557.59;5070684;28;20880;-68
2023/03/02 03:47:56;;;;;;;72.33;26.97;;;;;;;6.75;62.62;102559.66;5054792;28;20198;-68
2023/03/02 03:50:22;;;;;;;77.80;27.23;;;;;;;6.94;63.33;102569.81;5066475;28;20059;-67
2023/03/02 03:52:48;;;;;;;80.07;28.37;;;;;;;6.74;65.14;102565.66;5065039;28;20483;-68
2023/03/02 03:55:14;;;;;;;73.87;27.73;;;;;;;6.57;63.41;102565.97;5051905;28;20067;-68
2023/03/02 03:57:40;;;;;;;72.50;26.50;;;;;;;6.74;63.47;102560.47;5068861;28;20483;-68
2023/03/02 04:00:09;;;;;;;74.23;28.20;;;;;;;6.34;63.91;102556.50;5069312;28;20151;-68
2023/03/02 04:02:35;;;;;;;75.37;28.10;;;;;;;6.62;64.60;102572.22;5070792;28;20032;-68
2023/03/02 04:05:05;;;;;;;72.77;28.40;;;;;;;6.64;64.18;102566.22;5069808;28;20032;-68
2023/03/02 04:07:35;;;;;;;71.70;28.73;;;;;;;6.99;63.39;102562.16;5069474;28;20036;-68
2023/03/02 04:10:03;;;;;;;77.17;29.23;;;;;;;6.42;64.98;102566.34;5065086;28;20036;-69
2023/03/02 04:12:34;;;;;;;67.03;26.37;;;;;;;5.78;68.12;102575.22;5069307;28;20068;-68
2023/03/02 04:14:59;;;;;;;72.47;27.83;;;;;;;6.06;68.28;102576.31;5069634;28;20472;-68
2023/03/02 04:17:25;;;;;;;70.53;26.47;;;;;;;6.31;68.67;102572.88;5071056;28;20031;-68
2023/03/02 04:19:51;;;;;;;75.83;28.90;;;;;;;7.34;63.86;102571.94;5068615;28;20044;-68
2023/03/02 04:22:18;;;;;;;72.30;24.97;;;;;;;5.96;65.71;102575.03;5069230;28;20029;-68
2023/03/02 04:24:45;;;;;;;74.73;28.10;;;;;;;6.44;67.24;102574.16;5069640;28;20066;-68
2023/03/02 04:27:11;;;;;;;74.87;26.90;;;;;;;6.57;65.68;102576.38;5061238;28;20048;-68
2023/03/02 04:29:36;;;;;;;74.77;27.83;;;;;;;6.39;65.36;102575.75;5070809;28;20033;-68
2023/03/02 04:32:02;;;;;;;69.90;26.93;;;;;;;6.79;64.47;102579.72;5066759;28;20063;-68
2023/03/02 04:34:27;;;;;;;79.17;28.03;;;;;;;6.11;67.27;102585.13;5068449;28;20480;-68
2023/03/02 04:36:53;;;;;;;64.83;25.93;;;;;;;6.57;65.02;102583.28;5068716;28;20062;-69
2023/03/02 04:39:20;;;;;;;65.83;24.23;;;;;;;5.97;65.98;102583.72;5069014;28;20032;-68
2023/03/02 04:41:46;;;;;;;75.90;29.93;;;;;;;6.74;63.77;102584.72;5067397;28;20036;-68
2023/03/02 04:44:13;;;;;;;68.10;26.03;;;;;;;6.20;65.28;102572.47;5066819;28;20035;-68
2023/03/02 04:46:39;;;;;;;73.67;28.03;;;;;;;6.99;63.46;102580.34;5069332;28;20049;-69
2023/03/02 04:49:05;;;;;;;72.90;26.60;;;;;;;6.94;62.66;102572.41;5050869;28;20403;-68
2023/03/02 04:51:34;;;;;;;79.73;28.30;;;;;;;7.08;61.80;102574.59;5064853;28;20033;-69
2023/03/02 04:54:02;;;;;;;69.50;26.80;;;;;;;7.28;60.57;102573.50;5069773;28;20446;-68
2023/03/02 04:56:28;;;;;;;73.63;26.93;;;;;;;7.09;61.08;102573.75;5068115;28;20029;-68
2023/03/02 04:58:55;;;;;;;72.83;28.23;;;;;;;6.45;63.91;102570.75;5068728;28;20028;-69
2023/03/02 05:01:20;;;;;;;77.17;27.43;;;;;;;6.16;64.45;102574.94;5059027;28;20041;-68
2023/03/02 05:03:46;;;;;;;69.70;26.13;;;;;;;6.65;63.20;102578.34;5062148;28;20090;-68
2023/03/02 05:06:13;;;;;;;64.47;24.53;;;;;;;6.09;65.33;102571.22;5065693;28;20052;-68
2023/03/02 05:08:38;;;;;;;64.53;24.87;;;;;;;6.32;65.11;102568.53;5059314;28;20104;-68
2023/03/02 05:11:06;;;;;;;70.87;27.33;;;;;;;6.18;65.58;102571.56;5068429;28;20138;-69
2023/03/02 05:13:32;;;;;;;70.40;26.63;;;;;;;7.01;63.40;102575.22;5068660;28;20044;-68
2023/03/02 05:15:57;;;;;;;73.00;27.57;;;;;;;6.88;61.00;102568.72;5067294;28;20457;-68
2023/03/02 05:18:24;;;;;;;69.37;25.83;;;;;;;6.26;63.74;102570.13;5068467;28;20114;-69
2023/03/02 05:20:50;;;;;;;72.27;26.03;;;;;;;6.22;63.28;102570.84;5066049;28;20513;-68
2023/03/02 05:23:22;;;;;;;67.97;25.97;;;;;;;6.87;61.90;102575.66;5067705;28;20028;-68
2023/03/02 05:25:55;;;;;;;75.40;26.50;;;;;;;7.19;60.71;102562.78;5067422;28;20032;-68
2023/03/02 05:28:22;;;;;;;67.47;25.58;;;;;;;7.15;60.04;102563.53;5070411;28;20036;-69
2023/03/02 05:30:48;;;;;;;72.93;26.83;;;;;;;7.18;59.20;102561.03;5066772;28;20029;-68
2023/03/02 05:33:14;;;;;;;72.43;26.77;;;;;;;6.46;60.74;102562.13;5068491;28;20025;-68
2023/03/02 05:35:41;;;;;;;73.97;27.47;;;;;;;6.74;60.98;102563.06;5067385;28;20617;-68
2023/03/02 05:38:07;;;;;;;68.10;25.60;;;;;;;7.09;60.48;102559.03;5066355;28;20029;-68
2023/03/02 05:40:32;;;;;;;70.83;26.10;;;;;;;6.24;65.73;102561.38;5066706;28;20104;-68
2023/03/02 05:42:58;;;;;;;69.00;27.07;;;;;;;6.83;61.45;102563.38;5066574;28;20082;-68
2023/03/02 05:45:28;;;;;;;73.37;26.53;;;;;;;6.34;62.96;102564.31;5068243;28;20554;-68
2023/03/02 05:47:53;;;;;;;61.43;24.50;;;;;;;6.37;64.39;102567.00;5052260;28;20078;-68
2023/03/02 05:50:19;;;;;;;65.00;24.53;;;;;;;6.17;66.32;102554.19;5067946;28;20027;-68
2023/03/02 05:52:45;;;;;;;69.83;24.13;;;;;;;6.34;64.03;102570.38;5067587;28;20462;-68
2023/03/02 05:55:12;;;;;;;66.63;25.43;;;;;;;6.81;62.07;102564.16;5067523;28;20078;-68
2023/03/02 05:57:38;;;;;;;69.27;26.73;;;;;;;6.57;62.47;102568.56;5066150;28;20111;-68
2023/03/02 06:00:04;;;;;;;63.27;23.97;;;;;;;6.71;62.15;102568.16;5063697;28;20111;-68
2023/03/02 06:02:31;;;;;;;65.80;26.43;;;;;;;6.50;61.98;102574.41;5055193;28;20037;-68
2023/03/02 06:04:56;;;;;;;68.20;25.07;;;;;;;5.96;64.90;102580.22;5050578;28;20043;-68
2023/03/02 06:07:22;;;;;;;66.90;25.33;;;;;;;6.73;61.58;102576.88;5061723;28;20036;-68
2023/03/02 06:09:48;;;;;;;63.67;25.20;;;;;;;6.97;60.94;102582.03;5066410;28;20037;-68
2023/03/02 06:12:13;;;;;;;70.20;25.67;;;;;;;6.34;63.16;102575.56;5067035;28;20028;-69
2023/03/02 06:14:39;;;;;;;59.17;23.50;;;;;;;6.10;64.76;102578.19;5067589;28;20031;-68
2023/03/02 06:17:04;;;;;;;66.83;25.87;;;;;;;6.48;62.04;102585.56;5068666;28;20131;-68
2023/03/02 06:19:31;;;;;;;62.33;24.67;;;;;;;5.94;66.02;102584.47;5068081;28;20032;-68
2023/03/02 06:21:56;;;;;;;65.77;25.57;;;;;;;6.25;65.02;102583.94;5066638;28;20028;-68
2023/03/02 06:24:21;;;;;;;61.10;24.47;;;;;;;6.08;66.54;102590.22;5068599;28;20498;-68
2023/03/02 06:26:47;;;;;;;69.93;25.23;;;;;;;6.43;64.38;102585.41;5064755;28;20468;-68
2023/03/02 06:29:12;;;;;;;64.33;25.23;;;;;;;6.72;62.36;102590.75;5068806;28;20055;-70
2023/03/02 06:31:37;;;;;;;65.67;24.33;;;;;;;6.32;63.10;102589.31;5067472;28;20590;-69
2023/03/02 06:34:03;;;;;;;64.67;24.97;;;;;;;5.97;64.87;102594.97;5067754;28;20040;-70
2023/03/02 06:36:28;;;;;;;62.70;25.40;;;;;;;6.09;64.57;102597.19;5066115;28;20484;-70
2023/03/02 06:38:53;;;;;;;69.97;23.57;;;;;;;6.39;63.65;102591.34;5067763;28;20033;-69
2023/03/02 06:41:19;;;;;;;69.20;25.10;;;;;;;6.51;62.33;102594.38;5066760;28;20054;-70
2023/03/02 06:43:44;;;;;;;62.30;24.57;;;;;;;6.57;61.94;102602.34;5053798;28;20025;-69
2023/03/02 06:46:10;;;;;;;67.00;25.70;;;;;;;6.52;63.23;102598.72;5048153;28;22051;-69
2023/03/02 06:48:36;;;;;;;64.17;24.77;;;;;;;6.48;62.52;102606.34;5046801;28;20032;-69
2023/03/02 06:51:01;;;;;;;69.57;26.10;;;;;;;6.09;64.85;102603.25;5047118;28;20127;-69
2023/03/02 06:53:27;;;;;;;70.17;26.00;;;;;;;6.84;61.50;102601.56;5063777;28;20032;-69
2023/03/02 06:55:52;;;;;;;72.07;24.37;;;;;;;6.60;60.65;102605.06;5064272;28;20383;-70
2023/03/02 06:58:18;;;;;;;67.83;25.50;;;;;;;5.81;64.23;102603.91;5064251;28;20043;-69
2023/03/02 07:00:43;;;;;;;69.03;24.47;;;;;;;6.27;63.36;102602.16;5061262;28;20025;-68
2023/03/02 07:03:08;;;;;;;68.47;24.73;;;;;;;5.88;65.02;102605.91;5053550;28;20525;-68
2023/03/02 07:05:35;;;;;;;64.57;25.33;;;;;;;5.82;67.28;102597.88;5056404;28;20089;-69
2023/03/02 07:08:01;;;;;;;70.00;24.90;;;;;;;5.97;66.04;102601.91;5061346;28;20125;-68
2023/03/02 07:10:27;;;;;;;70.87;25.30;;;;;;;6.22;65.75;102594.22;5065792;28;20163;-68
2023/03/02 07:12:53;;;;;;;66.87;26.30;;;;;;;6.19;66.04;102596.69;5061788;28;20561;-68
2023/03/02 07:15:19;;;;;;;68.57;24.97;;;;;;;6.35;63.54;102598.13;5067038;28;20032;-68
2023/03/02 07:17:45;;;;;;;67.63;25.23;;;;;;;6.37;64.24;102603.38;5057686;28;20277;-68
2023/03/02 07:20:13;;;;;;;72.33;25.37;;;;;;;6.67;62.62;102607.88;5062583;28;20359;-68
2023/03/02 07:22:40;;;;;;;72.00;25.23;;;;;;;6.61;62.48;102613.75;5079955;28;20036;-69
2023/03/02 07:25:06;;;;;;;76.03;26.40;;;;;;;6.90;60.38;102614.75;5065775;28;20620;-69
2023/03/02 07:27:32;;;;;;;75.20;26.83;;;;;;;6.25;62.93;102609.91;5059927;28;20074;-69
2023/03/02 07:29:57;;;;;;;69.77;26.10;;;;;;;6.64;62.52;102615.56;5054731;28;20049;-68
2023/03/02 07:32:22;;;;;;;68.80;26.27;;;;;;;6.70;60.41;102603.66;5066399;28;20477;-69
2023/03/02 07:34:48;;;;;;;60.97;22.30;;;;;;;6.35;63.37;102615.44;5052723;28;20078;-69
2023/03/02 07:37:13;;;;;;;59.77;25.03;;;;;;;6.30;64.72;102602.25;5047714;28;20033;-68
2023/03/02 07:39:38;;;;;;;70.80;25.63;;;;;;;6.76;63.46;102613.41;5046801;28;20033;-68
2023/03/02 07:42:07;;;;;;;69.17;25.93;;;;;;;7.23;61.22;102611.47;5052626;28;20040;-68
2023/03/02 07:44:33;;;;;;;73.03;26.53;;;;;;;7.83;60.03;102599.44;5065838;28;20070;-68
2023/03/02 07:46:58;;;;;;;67.23;26.60;;;;;;;8.10;58.99;102594.13;5066339;28;20044;-69
2023/03/02 07:49:23;;;;;;;65.57;26.50;;;;;;;8.39;55.31;102601.88;5067018;28;20036;-69
2023/03/02 07:51:49;;;;;;;61.17;23.40;;;;;;;7.21;58.01;102602.75;5052280;28;20035;-68
2023/03/02 07:54:14;;;;;;;57.83;23.50;;;;;;;7.91;56.83;102603.16;5067335;28;20036;-69
2023/03/02 07:56:40;;;;;;;57.60;24.30;;;;;;;7.34;57.80;102605.75;5066059;28;20119;-68
2023/03/02 07:59:05;;;;;;;60.70;23.70;;;;;;;7.18;59.80;102607.84;5066521;28;20476;-69
2023/03/02 08:01:30;;;;;;;52.37;22.73;;;;;;;6.17;62.21;102615.63;5068126;28;20052;-68
2023/03/02 08:03:56;;;;;;;57.03;22.77;;;;;;;7.19;59.82;102609.63;5067450;28;20490;-68
2023/03/02 08:06:21;;;;;;;58.20;23.17;;;;;;;6.74;60.69;102610.72;5066875;28;20067;-68
2023/03/02 08:08:47;;;;;;;64.33;23.67;;;;;;;7.09;59.85;102607.56;5064944;28;20044;-68
2023/03/02 08:11:15;;;;;;;54.67;22.13;;;;;;;6.26;61.77;102609.09;5070069;28;20024;-68
2023/03/02 08:13:41;;;;;;;55.00;23.73;;;;;;;7.01;59.65;102611.63;5069609;28;20542;-68
2023/03/02 08:16:09;;;;;;;68.93;24.77;;;;;;;7.53;58.90;102610.69;5069835;28;20052;-69
2023/03/02 08:18:35;;;;;;;58.13;21.97;;;;;;;7.07;58.54;102607.47;5069276;28;20032;-68
2023/03/02 08:21:01;;;;;;;46.77;21.40;;;;;;;6.92;59.38;102618.28;5069869;28;20348;-68
2023/03/02 08:23:27;;;;;;;58.60;23.97;;;;;;;6.95;59.30;102615.78;5068470;28;20514;-68
2023/03/02 08:25:53;;;;;;;58.37;23.77;;;;;;;6.54;61.75;102606.56;5049161;28;20461;-68
2023/03/02 08:28:20;;;;;;;46.83;18.20;;;;;;;6.12;64.06;102610.28;5051208;28;20024;-68
2023/03/02 08:30:57;;;;;;;54.93;23.03;;;;;;;6.69;62.16;102606.19;5049304;28;20032;-68
2023/03/02 08:33:22;;;;;;;55.93;21.57;;;;;;;7.24;58.82;102605.44;5060637;28;20032;-68
2023/03/02 08:36:00;;;;;;;56.20;22.63;;;;;;;7.75;58.80;102595.72;5069115;28;20556;-69
2023/03/02 08:38:26;;;;;;;54.77;22.80;;;;;;;6.93;59.78;102603.56;5070086;28;20507;-68
2023/03/02 08:40:52;;;;;;;58.23;22.20;;;;;;;7.15;59.03;102602.53;5067927;28;20082;-68
2023/03/02 08:43:18;;;;;;;50.90;20.77;;;;;;;7.66;57.21;102595.44;5068880;28;20483;-68
2023/03/02 08:45:44;;;;;;;52.53;21.43;;;;;;;8.03;56.77;102593.94;5070253;28;20052;-68
2023/03/02 08:48:10;;;;;;;51.10;20.87;;;;;;;7.34;56.31;102598.81;5069239;28;20032;-68
2023/03/02 08:50:35;;;;;;;57.80;21.03;;;;;;;7.50;57.98;102595.00;5065196;28;20445;-68
2023/03/02 08:53:00;;;;;;;57.50;24.90;;;;;;;7.24;56.88;102601.94;5048447;28;20515;-68
2023/03/02 08:55:26;;;;;;;53.90;20.43;;;;;;;7.43;57.89;102598.22;5049655;28;20024;-68
2023/03/02 08:57:53;;;;;;;54.80;22.67;;;;;;;7.55;57.28;102596.00;5048747;28;20516;-69
2023/03/02 09:00:19;;;;;;;51.13;21.53;;;;;;;7.81;55.60;102593.28;5067526;28;20028;-68
2023/03/02 09:02:44;;;;;;;49.00;21.37;;;;;;;7.87;56.05;102590.88;5048482;28;20037;-68
2023/03/02 09:05:11;;;;;;;53.60;21.60;;;;;;;7.61;56.43;102597.88;5050518;28;20033;-68
2023/03/02 09:07:36;;;;;;;47.90;20.40;;;;;;;8.32;53.95;102586.91;5048091;28;20032;-68
2023/03/02 09:10:01;;;;;;;52.97;21.40;;;;;;;8.91;53.63;102591.09;5048941;28;20025;-68
2023/03/02 09:12:27;;;;;;;46.87;20.60;;;;;;;8.33;53.94;102591.28;5068584;28;20024;-68
2023/03/02 09:14:52;;;;;;;50.53;20.13;;;;;;;8.57;52.92;102593.72;5067008;28;20067;-68
2023/03/02 09:17:17;;;;;;;42.20;18.83;;;;;;;8.11;53.82;102585.47;5068369;28;20035;-69
2023/03/02 09:19:43;;;;;;;41.40;18.50;;;;;;;8.22;53.93;102577.97;5068522;28;20496;-68
2023/03/02 09:22:08;;;;;;;44.87;18.47;;;;;;;8.85;52.39;102581.38;5067899;28;20029;-68
2023/03/02 09:24:34;;;;;;;40.90;18.80;;;;;;;9.05;51.78;102579.25;5068287;28;20036;-69
2023/03/02 09:27:00;;;;;;;41.13;17.93;;;;;;;8.95;51.94;102577.28;5068611;28;20036;-68
2023/03/02 09:29:25;;;;;;;39.53;18.83;;;;;;;9.31;50.59;102579.00;5067289;28;20279;-68
2023/03/02 09:31:51;;;;;;;41.87;17.63;;;;;;;9.67;49.54;102576.34;5067763;28;20484;-68
2023/03/02 09:34:16;;;;;;;37.40;16.70;;;;;;;10.49;46.11;102574.47;5067951;28;20444;-68
2023/03/02 09:36:42;;;;;;;36.53;16.93;;;;;;;12.22;42.81;102575.25;5067598;28;20023;-69
2023/03/02 09:39:11;;;;;;;33.07;15.03;;;;;;;14.02;40.08;102573.94;5068110;28;20070;-68
2023/03/02 09:41:54;;;;;;;32.63;15.23;;;;;;;12.32;40.07;102578.88;5048373;28;20025;-68
2023/03/02 09:44:41;;;;;;;30.73;14.10;;;;;;;13.51;40.66;102576.34;5049223;28;20108;-69
2023/03/02 09:47:28;;;;;;;29.60;14.33;;;;;;;13.21;39.94;102585.75;5049545;28;20076;-69
2023/03/02 09:50:03;;;;;;;29.27;14.47;;;;;;;14.71;37.67;102576.72;5052839;28;20433;-69
2023/03/02 09:52:57;;;;;;;29.97;15.10;;;;;;;15.46;37.11;102566.97;5068555;28;20472;-68
2023/03/02 09:55:27;;;;;;;27.53;14.40;;;;;;;14.49;37.71;102585.44;5038439;28;20062;-69
2023/03/02 09:57:54;;;;;;;25.53;13.43;;;;;;;14.35;37.12;102578.38;5065734;28;20031;-69
2023/03/02 10:00:26;;;;;;;24.47;13.07;;;;;;;15.91;35.14;102585.31;5069528;28;20024;-69
2023/03/02 10:02:58;;;;;;;25.58;12.48;;;;;;;13.99;36.94;102579.19;5067401;28;20533;-68
2023/03/02 10:05:32;;;;;;;;;;;;;;;13.66;37.41;102581.66;5069123;28;20598;-69
2023/03/02 10:07:58;;;;;;;30.00;13.03;;;;;;;14.88;36.51;102583.75;5067691;28;19916;-68
2023/03/02 10:10:33;;;;;;;26.13;12.00;;;;;;;15.38;35.80;102574.88;5068419;28;20043;-68
2023/03/02 10:13:08;;;;;;;27.27;13.40;;;;;;;16.43;33.23;102558.59;5067733;28;20032;-69
2023/03/02 10:15:34;;;;;;;22.87;12.10;;;;;;;15.07;34.95;102567.06;5067776;28;20044;-69
2023/03/02 10:18:17;;;;;;;21.80;11.77;;;;;;;13.95;36.68;102566.91;5067205;28;20127;-69
2023/03/02 10:20:46;;;;;;;21.20;11.30;;;;;;;13.73;37.79;102567.66;5061864;28;20025;-69
2023/03/02 10:23:35;;;;;;;22.83;11.33;;;;;;;14.04;37.64;102565.19;5048587;28;20056;-69
2023/03/02 10:26:09;;;;;;;24.67;12.93;;;;;;;13.63;38.35;102560.63;5068186;28;20063;-69
2023/03/02 10:28:43;;;;;;;23.37;12.80;;;;;;;13.77;38.55;102565.09;5067563;28;20044;-69
2023/03/02 10:31:14;;;;;;;25.03;12.87;;;;;;;12.88;40.37;102558.38;5067494;28;20024;-68
2023/03/02 10:33:40;;;;;;;24.57;12.27;;;;;;;12.56;39.86;102564.22;5068521;28;20428;-69
2023/03/02 10:36:21;;;;;;;24.80;10.73;;;;;;;12.38;41.22;102557.94;5066935;28;20418;-68
2023/03/02 10:38:46;;;;;;;26.67;13.20;;;;;;;14.28;37.72;102559.97;5067463;28;20033;-68
2023/03/02 10:41:19;;;;;;;23.23;12.07;;;;;;;14.19;36.88;102552.94;5067554;28;20025;-69
2023/03/02 10:43:48;;;;;;;25.02;12.55;;;;;;;13.12;39.42;102554.16;5068366;28;20484;-68
2023/03/02 10:46:14;;;;;;;23.50;11.83;;;;;;;13.37;38.68;102548.25;5066040;28;20048;-69
2023/03/02 10:48:50;;;;;;;25.80;12.60;;;;;;;12.19;40.73;102550.75;5067163;28;20032;-69
2023/03/02 10:51:27;;;;;;;25.20;12.03;;;;;;;13.06;39.14;102548.03;5069100;28;20029;-68
2023/03/02 10:54:22;;;;;;;23.63;12.17;;;;;;;13.80;38.28;102541.44;5067441;28;20099;-67
2023/03/02 10:56:50;;;;;;;21.77;10.47;;;;;;;13.93;37.53;102543.25;5058767;28;20484;-69
2023/03/02 10:59:28;;;;;;;22.53;10.67;;;;;;;13.65;38.40;102547.50;5049923;28;20017;-67
2023/03/02 11:02:01;;;;;;;23.40;11.83;;;;;;;13.83;38.53;102546.69;5046789;28;20025;-67
2023/03/02 11:04:29;;;;;;;18.27;8.77;;;;;;;13.00;38.43;102545.34;5047497;28;20024;-69
2023/03/02 11:06:54;;;;;;;22.27;11.20;;;;;;;14.89;37.00;102548.63;5059368;28;20028;-70
2023/03/02 11:09:20;;;;;;;24.83;12.03;;;;;;;14.89;36.11;102548.63;5067566;28;20024;-70
2023/03/02 11:11:55;;;;;;;25.20;11.50;;;;;;;14.39;37.59;102543.31;5066763;28;20048;-69
2023/03/02 11:14:22;;;;;;;26.67;11.90;;;;;;;14.68;36.36;102552.16;5065911;28;20020;-68
2023/03/02 11:16:51;;;;;;;23.83;12.07;;;;;;;15.03;36.52;102546.88;5065642;28;20046;-67
2023/03/02 11:19:28;;;;;;;28.33;12.57;;;;;;;15.28;36.65;102541.56;5068362;28;20033;-67
2023/03/02 11:21:57;;;;;;;25.53;12.43;;;;;;;13.96;38.66;102543.25;5065745;28;20024;-67